Time;durP1;ratioP1;P1;durP2;ratioP2;P2;SDS_P1;SDS_P2;PMS_P1;PMS_P2;Temp;Humidity;BMP_temperature;BMP_pressure;BME280_temperature;BME280_humidity;BME280_pressure;Samples;Min_cycle;Max_cycle;Signal;HPM_P1;HPM_P2
2021/08/22 00:02:34;;;;;;;7.82;6.03;;;20.50;70.80;;;;;;5046249;28;20040;-51
2021/08/22 00:05:18;;;;;;;11.77;6.18;;;20.40;71.10;;;;;;5046218;28;20032;-52
2021/08/22 00:08:03;;;;;;;10.57;5.88;;;20.40;71.40;;;;;;5045237;28;20209;-51
2021/08/22 00:10:47;;;;;;;9.57;5.97;;;20.40;71.40;;;;;;5046127;28;20145;-49
2021/08/22 00:13:32;;;;;;;9.45;6.10;;;20.30;71.60;;;;;;5045387;28;20229;-51
2021/08/22 00:16:16;;;;;;;11.52;6.43;;;20.40;71.60;;;;;;5045341;28;20056;-51
2021/08/22 00:19:00;;;;;;;9.57;6.00;;;20.30;71.70;;;;;;5045349;28;20027;-52
2021/08/22 00:21:44;;;;;;;10.82;6.50;;;20.40;71.60;;;;;;5045337;28;20079;-48
2021/08/22 00:24:28;;;;;;;8.85;6.20;;;20.30;71.70;;;;;;5045322;28;20028;-49
2021/08/22 00:27:13;;;;;;;9.25;6.32;;;20.30;71.70;;;;;;5045652;28;20066;-49
2021/08/22 00:29:57;;;;;;;9.73;6.28;;;20.30;71.80;;;;;;5045300;28;20040;-49
2021/08/22 00:32:41;;;;;;;7.80;6.20;;;20.30;72.00;;;;;;5045207;28;20112;-48
2021/08/22 00:35:25;;;;;;;7.93;6.00;;;20.30;72.00;;;;;;5045674;28;20043;-50
2021/08/22 00:38:10;;;;;;;9.15;6.38;;;20.30;72.10;;;;;;5044590;28;20048;-48
2021/08/22 00:40:53;;;;;;;8.95;6.28;;;20.30;72.20;;;;;;5045390;28;20035;-48
2021/08/22 00:43:38;;;;;;;7.30;5.82;;;20.30;72.30;;;;;;5045366;28;20037;-49
2021/08/22 00:46:22;;;;;;;7.65;5.55;;;20.20;72.40;;;;;;5045053;28;20083;-48
2021/08/22 00:49:10;;;;;;;9.88;6.30;;;20.20;72.40;;;;;;5044029;28;20028;-49
2021/08/22 00:51:54;;;;;;;10.85;5.80;;;20.20;72.40;;;;;;5043946;28;20048;-50
2021/08/22 00:54:41;;;;;;;9.05;6.95;;;20.20;72.30;;;;;;5044795;28;20029;-50
2021/08/22 00:57:25;;;;;;;8.52;6.45;;;20.30;72.30;;;;;;5044102;28;20029;-49
2021/08/22 01:00:10;;;;;;;10.10;5.55;;;20.20;72.30;;;;;;5045131;28;20040;-48
2021/08/22 01:03:15;;;;;;;8.15;5.80;;;20.30;72.40;;;;;;5044748;28;20072;-52
2021/08/22 01:06:17;;;;;;;8.75;6.22;;;20.30;72.70;;;;;;5030287;28;20335;-48
2021/08/22 01:09:04;;;;;;;9.27;6.13;;;20.30;72.40;;;;;;5044794;28;20091;-48
2021/08/22 01:11:48;;;;;;;9.55;6.32;;;20.30;72.20;;;;;;5030104;28;20075;-49
2021/08/22 01:14:35;;;;;;;7.47;5.82;;;20.20;72.30;;;;;;5044417;28;20102;-48
2021/08/22 01:17:20;;;;;;;9.82;6.18;;;20.20;72.20;;;;;;5044717;28;20076;-48
2021/08/22 01:20:22;;;;;;;10.88;5.78;;;20.30;72.00;;;;;;5043359;28;20036;-51
2021/08/22 01:23:07;;;;;;;9.68;5.70;;;20.30;72.10;;;;;;5044286;28;20052;-50
2021/08/22 01:25:51;;;;;;;9.45;5.78;;;20.20;72.20;;;;;;5043430;28;20072;-48
2021/08/22 01:28:36;;;;;;;10.48;5.82;;;20.20;72.20;;;;;;5029496;28;20025;-49
2021/08/22 01:31:26;;;;;;;10.98;6.30;;;20.20;72.10;;;;;;5044061;28;20111;-48
2021/08/22 01:34:10;;;;;;;11.25;6.22;;;20.20;72.40;;;;;;5029688;28;20193;-49
2021/08/22 01:36:56;;;;;;;9.40;6.35;;;20.20;72.30;;;;;;5043392;28;20071;-49
2021/08/22 01:39:42;;;;;;;8.73;6.10;;;20.30;72.30;;;;;;5043279;28;20060;-51
2021/08/22 01:42:27;;;;;;;7.68;5.80;;;20.30;72.30;;;;;;5043135;28;20075;-55
2021/08/22 01:45:17;;;;;;;9.40;5.95;;;20.30;72.40;;;;;;5029650;28;20044;-50
2021/08/22 01:48:01;;;;;;;8.85;5.88;;;20.30;72.30;;;;;;5043137;28;20036;-49
2021/08/22 01:50:45;;;;;;;12.38;5.88;;;20.30;72.30;;;;;;5044080;28;20056;-52
2021/08/22 01:53:30;;;;;;;8.00;5.95;;;20.30;72.40;;;;;;5044374;28;20087;-49
2021/08/22 01:56:14;;;;;;;8.43;5.90;;;20.30;72.10;;;;;;5044124;28;20076;-47
2021/08/22 01:58:58;;;;;;;7.80;5.90;;;20.40;72.10;;;;;;5044309;28;20044;-48
2021/08/22 02:01:42;;;;;;;7.38;5.53;;;20.40;72.00;;;;;;5044031;28;20091;-49
2021/08/22 02:04:42;;;;;;;8.02;5.72;;;20.40;72.10;;;;;;5044235;28;20121;-48
2021/08/22 02:07:32;;;;;;;8.68;6.30;;;20.30;72.40;;;;;;5042931;28;20036;-48
2021/08/22 02:10:34;;;;;;;8.80;5.80;;;20.30;72.40;;;;;;5046974;28;20071;-48
2021/08/22 02:13:18;;;;;;;9.15;5.85;;;20.30;72.90;;;;;;5047827;28;20031;-49
2021/08/22 02:16:03;;;;;;;9.65;6.07;;;20.30;72.40;;;;;;5047080;28;20048;-48
2021/08/22 02:18:48;;;;;;;8.77;6.07;;;20.40;72.30;;;;;;5047701;28;20036;-52
2021/08/22 02:21:32;;;;;;;8.38;5.45;;;20.40;72.50;;;;;;5032890;28;20089;-50
2021/08/22 02:24:16;;;;;;;7.72;6.05;;;20.30;72.40;;;;;;5047686;28;20216;-48
2021/08/22 02:27:01;;;;;;;7.68;5.28;;;20.30;72.40;;;;;;5033254;28;20063;-48
2021/08/22 02:29:49;;;;;;;8.13;5.20;;;20.40;72.30;;;;;;5046823;28;20063;-48
2021/08/22 02:32:33;;;;;;;8.35;5.72;;;20.30;72.30;;;;;;5048043;28;20049;-48
2021/08/22 02:35:17;;;;;;;9.10;5.65;;;20.30;72.30;;;;;;5046980;28;20036;-48
2021/08/22 02:38:02;;;;;;;11.20;5.40;;;20.40;72.10;;;;;;5047338;28;20075;-50
2021/08/22 02:40:46;;;;;;;8.20;6.10;;;20.40;71.80;;;;;;5047300;28;20037;-49
2021/08/22 02:43:30;;;;;;;8.38;5.65;;;20.40;71.60;;;;;;5047319;28;20225;-50
2021/08/22 02:46:14;;;;;;;7.93;5.70;;;20.40;71.30;;;;;;5047488;28;20020;-48
2021/08/22 02:48:59;;;;;;;7.53;5.30;;;20.50;71.20;;;;;;5047650;28;20204;-48
2021/08/22 02:51:43;;;;;;;8.75;5.82;;;20.40;70.80;;;;;;5047185;28;20052;-50
2021/08/22 02:54:27;;;;;;;8.50;5.40;;;20.40;70.50;;;;;;5047126;28;20391;-49
2021/08/22 02:57:12;;;;;;;7.95;5.50;;;20.50;70.70;;;;;;5047485;28;20025;-48
2021/08/22 02:59:56;;;;;;;7.05;5.22;;;20.50;70.80;;;;;;5047220;28;20071;-49
2021/08/22 03:02:40;;;;;;;7.05;5.18;;;20.50;70.50;;;;;;5047122;28;20032;-48
2021/08/22 03:05:24;;;;;;;8.73;5.93;;;20.50;70.40;;;;;;5047586;28;20217;-50
2021/08/22 03:08:09;;;;;;;10.77;5.60;;;20.50;70.70;;;;;;5047226;28;20404;-50
2021/08/22 03:10:53;;;;;;;8.77;5.80;;;20.50;70.80;;;;;;5046837;28;20375;-48
2021/08/22 03:13:37;;;;;;;7.05;5.35;;;20.50;70.70;;;;;;5046446;28;20120;-50
2021/08/22 03:16:22;;;;;;;8.13;5.55;;;20.50;70.80;;;;;;5046552;28;20044;-50
2021/08/22 03:19:06;;;;;;;7.78;5.53;;;20.50;70.80;;;;;;5046186;28;20063;-48
2021/08/22 03:21:50;;;;;;;8.25;5.38;;;20.50;70.70;;;;;;5046600;28;20351;-50
2021/08/22 03:24:35;;;;;;;7.60;5.38;;;20.50;70.80;;;;;;5046606;28;20021;-49
2021/08/22 03:27:19;;;;;;;8.90;5.82;;;20.60;70.60;;;;;;5046809;28;20053;-49
2021/08/22 03:30:04;;;;;;;7.13;5.22;;;20.50;70.40;;;;;;5047022;28;20397;-49
2021/08/22 03:32:48;;;;;;;7.85;5.53;;;20.60;70.30;;;;;;5046633;28;20346;-50
2021/08/22 03:35:32;;;;;;;7.53;5.40;;;20.60;70.20;;;;;;5046879;28;20032;-53
2021/08/22 03:38:17;;;;;;;8.30;5.50;;;20.60;69.90;;;;;;5046679;28;20079;-50
2021/08/22 03:41:01;;;;;;;7.18;5.03;;;20.60;69.90;;;;;;5046310;28;20086;-50
2021/08/22 03:43:45;;;;;;;7.40;5.30;;;20.60;69.80;;;;;;5046328;28;20076;-51
2021/08/22 03:46:30;;;;;;;7.43;5.18;;;20.60;69.70;;;;;;5046441;28;20028;-52
2021/08/22 03:49:15;;;;;;;20.20;5.63;;;20.50;70.10;;;;;;5046217;28;20352;-48
2021/08/22 03:51:59;;;;;;;9.85;5.40;;;20.50;70.00;;;;;;5046195;28;20079;-51
2021/08/22 03:54:43;;;;;;;9.38;5.57;;;20.50;69.90;;;;;;5045951;28;20079;-50
2021/08/22 03:57:28;;;;;;;11.18;5.70;;;20.50;70.20;;;;;;5045884;28;20087;-52
2021/08/22 04:00:13;;;;;;;10.57;5.72;;;20.50;70.40;;;;;;5046435;28;20213;-51
2021/08/22 04:02:57;;;;;;;10.98;6.05;;;20.50;70.50;;;;;;5045946;28;20055;-52
2021/08/22 04:05:41;;;;;;;9.82;5.43;;;20.50;71.40;;;;;;5045911;28;20040;-52
2021/08/22 04:08:25;;;;;;;9.65;5.30;;;20.60;71.70;;;;;;5046199;28;20383;-51
2021/08/22 04:11:10;;;;;;;13.40;5.82;;;20.50;72.00;;;;;;5045835;28;20205;-49
2021/08/22 04:13:54;;;;;;;10.10;6.18;;;20.50;73.00;;;;;;5045564;28;20284;-50
2021/08/22 04:16:38;;;;;;;9.27;5.63;;;20.40;74.30;;;;;;5045396;28;20339;-49
2021/08/22 04:19:22;;;;;;;9.18;6.03;;;20.40;74.50;;;;;;5045780;28;20037;-49
2021/08/22 04:22:07;;;;;;;8.85;5.80;;;20.40;74.70;;;;;;5045377;28;20072;-50
2021/08/22 04:24:52;;;;;;;11.55;6.38;;;20.40;74.80;;;;;;5045306;28;20029;-51
2021/08/22 04:27:38;;;;;;;10.00;5.53;;;20.40;74.90;;;;;;5044327;28;20029;-49
2021/08/22 04:30:22;;;;;;;8.95;5.80;;;20.40;75.20;;;;;;5044906;28;20025;-52
2021/08/22 04:33:06;;;;;;;12.40;6.53;;;20.40;75.40;;;;;;5044262;28;20023;-50
2021/08/22 04:35:51;;;;;;;11.18;5.85;;;20.40;75.50;;;;;;5045148;28;20072;-50
2021/08/22 04:38:35;;;;;;;9.73;6.32;;;20.40;75.70;;;;;;5045354;28;20044;-49
2021/08/22 04:41:20;;;;;;;10.68;6.45;;;20.30;75.80;;;;;;5044931;28;20366;-50
2021/08/22 04:44:04;;;;;;;9.82;5.70;;;20.30;75.80;;;;;;5044744;28;20033;-49
2021/08/22 04:46:49;;;;;;;10.60;5.82;;;20.30;75.80;;;;;;5044767;28;20124;-51
2021/08/22 04:49:33;;;;;;;9.80;5.72;;;20.30;75.90;;;;;;5044745;28;20299;-50
2021/08/22 04:52:17;;;;;;;8.40;5.30;;;20.20;76.40;;;;;;5044666;28;20041;-53
2021/08/22 04:55:04;;;;;;;10.75;5.90;;;20.20;76.30;;;;;;5044591;28;20068;-51
2021/08/22 04:57:49;;;;;;;11.30;5.68;;;20.20;76.40;;;;;;5044072;28;20043;-52
2021/08/22 05:00:33;;;;;;;11.43;5.63;;;20.20;76.40;;;;;;5044565;28;20412;-49
2021/08/22 05:03:17;;;;;;;13.80;6.40;;;20.20;76.50;;;;;;5044436;28;20063;-52
2021/08/22 05:06:02;;;;;;;10.13;5.85;;;20.20;76.50;;;;;;5044866;28;20070;-53
2021/08/22 05:08:46;;;;;;;10.13;5.57;;;20.20;76.40;;;;;;5044523;28;20036;-52
2021/08/22 05:11:30;;;;;;;7.30;5.10;;;20.20;76.40;;;;;;5044874;28;20044;-50
2021/08/22 05:14:14;;;;;;;8.43;5.10;;;20.20;76.50;;;;;;5044006;28;20072;-52
2021/08/22 05:16:59;;;;;;;7.15;4.95;;;20.10;76.50;;;;;;5044520;28;20435;-52
2021/08/22 05:19:43;;;;;;;7.75;4.85;;;20.10;76.50;;;;;;5044459;28;20033;-52
2021/08/22 05:22:28;;;;;;;9.70;4.45;;;20.20;76.70;;;;;;5044164;28;20049;-51
2021/08/22 05:25:13;;;;;;;8.75;4.82;;;20.10;76.60;;;;;;5044277;28;20046;-48
2021/08/22 05:27:57;;;;;;;7.07;4.80;;;20.10;76.50;;;;;;5044031;28;20056;-50
2021/08/22 05:30:41;;;;;;;7.47;4.25;;;20.10;76.40;;;;;;5044254;28;20032;-49
2021/08/22 05:33:26;;;;;;;8.60;4.05;;;20.20;76.50;;;;;;5043951;28;20029;-49
2021/08/22 05:36:15;;;;;;;6.53;4.45;;;20.10;76.60;;;;;;5044507;28;20231;-49
2021/08/22 05:38:59;;;;;;;6.22;4.18;;;20.20;76.70;;;;;;5043954;28;20052;-51
2021/08/22 05:41:43;;;;;;;8.07;4.18;;;20.20;76.50;;;;;;5043940;28;20068;-48
2021/08/22 05:44:27;;;;;;;7.20;4.10;;;20.20;76.20;;;;;;5043754;28;20036;-50
2021/08/22 05:47:12;;;;;;;8.52;4.43;;;20.20;76.20;;;;;;5043694;28;20076;-52
2021/08/22 05:49:56;;;;;;;6.93;4.07;;;20.20;76.00;;;;;;5043689;28;20399;-48
2021/08/22 05:52:40;;;;;;;9.07;4.13;;;20.30;75.90;;;;;;5043766;28;20097;-49
2021/08/22 05:55:25;;;;;;;7.40;3.97;;;20.30;76.10;;;;;;5043582;28;20036;-49
2021/08/22 05:58:09;;;;;;;6.93;3.78;;;20.30;76.30;;;;;;5043528;28;20136;-50
2021/08/22 06:00:53;;;;;;;10.05;3.95;;;20.30;76.30;;;;;;5043555;28;20429;-48
2021/08/22 06:03:37;;;;;;;6.68;3.88;;;20.30;76.30;;;;;;5043538;28;20196;-51
2021/08/22 06:06:22;;;;;;;6.55;3.53;;;20.30;76.20;;;;;;5042583;28;20093;-49
2021/08/22 06:09:06;;;;;;;6.40;3.60;;;20.20;76.40;;;;;;5043952;28;20134;-51
2021/08/22 06:11:50;;;;;;;5.95;3.88;;;20.20;76.10;;;;;;5043606;28;20028;-49
2021/08/22 06:14:35;;;;;;;5.65;3.70;;;20.00;76.30;;;;;;5043878;28;20060;-52
2021/08/22 06:17:19;;;;;;;6.40;3.65;;;20.00;76.50;;;;;;5043777;28;20101;-50
2021/08/22 06:20:05;;;;;;;8.65;3.35;;;20.10;76.50;;;;;;5043806;28;20029;-49
2021/08/22 06:22:49;;;;;;;5.88;3.35;;;20.10;76.60;;;;;;5043639;28;20033;-52
2021/08/22 06:25:33;;;;;;;5.85;3.15;;;20.10;76.90;;;;;;5043544;28;20044;-51
2021/08/22 06:28:18;;;;;;;5.57;3.05;;;20.10;77.10;;;;;;5043611;28;20091;-52
2021/08/22 06:31:02;;;;;;;5.47;2.92;;;20.20;76.50;;;;;;5043449;28;20200;-49
2021/08/22 06:33:46;;;;;;;4.28;2.80;;;20.10;76.10;;;;;;5042500;28;20029;-52
2021/08/22 06:36:30;;;;;;;3.65;2.80;;;20.20;75.90;;;;;;5043219;28;20028;-51
2021/08/22 06:39:15;;;;;;;4.80;3.05;;;20.20;76.00;;;;;;5043524;28;20052;-51
2021/08/22 06:41:59;;;;;;;4.93;2.80;;;20.30;76.20;;;;;;5043672;28;20079;-49
2021/08/22 06:44:43;;;;;;;5.35;2.67;;;20.30;76.10;;;;;;5043292;28;20068;-52
2021/08/22 06:47:27;;;;;;;4.47;3.10;;;20.20;75.40;;;;;;5043648;28;20040;-51
2021/08/22 06:50:12;;;;;;;4.35;2.83;;;20.30;75.80;;;;;;5043114;28;20036;-52
2021/08/22 06:52:56;;;;;;;5.55;2.97;;;20.30;75.30;;;;;;5043046;28;20053;-52
2021/08/22 06:55:41;;;;;;;6.88;2.72;;;20.30;75.20;;;;;;5045745;28;20303;-49
2021/08/22 06:58:25;;;;;;;4.50;2.90;;;20.30;75.70;;;;;;5046729;28;20048;-52
2021/08/22 07:01:11;;;;;;;3.92;2.67;;;20.30;75.70;;;;;;5047312;28;20053;-52
2021/08/22 07:03:55;;;;;;;4.75;2.85;;;20.30;75.30;;;;;;5046835;28;20033;-53
2021/08/22 07:06:40;;;;;;;5.70;3.35;;;20.30;75.30;;;;;;5046643;28;20296;-51
2021/08/22 07:09:24;;;;;;;6.28;2.90;;;20.40;75.10;;;;;;5046681;28;20032;-53
2021/08/22 07:12:08;;;;;;;5.53;3.03;;;20.40;75.40;;;;;;5046947;28;20352;-52
2021/08/22 07:14:52;;;;;;;6.30;2.67;;;20.40;75.60;;;;;;5047101;28;20060;-52
2021/08/22 07:17:37;;;;;;;6.13;3.00;;;20.40;75.80;;;;;;5046323;28;20040;-51
2021/08/22 07:20:21;;;;;;;5.38;2.47;;;20.40;75.80;;;;;;5046649;28;20087;-50
2021/08/22 07:23:06;;;;;;;4.43;2.35;;;20.40;75.30;;;;;;5045038;28;20232;-49
2021/08/22 07:25:51;;;;;;;7.32;2.92;;;20.50;75.40;;;;;;5046505;28;20064;-53
2021/08/22 07:28:35;;;;;;;4.28;2.83;;;20.50;75.10;;;;;;5046398;28;20079;-51
2021/08/22 07:31:20;;;;;;;3.22;2.30;;;20.40;75.00;;;;;;5045121;28;20036;-53
2021/08/22 07:34:04;;;;;;;4.70;2.78;;;20.40;75.30;;;;;;5046212;28;20063;-53
2021/08/22 07:36:48;;;;;;;3.47;2.47;;;20.40;75.60;;;;;;5046196;28;20037;-53
2021/08/22 07:39:32;;;;;;;3.95;2.53;;;20.50;75.50;;;;;;5046024;28;20027;-54
2021/08/22 07:42:17;;;;;;;3.92;2.45;;;20.50;75.40;;;;;;5045086;28;20033;-53
2021/08/22 07:45:01;;;;;;;4.47;2.55;;;20.50;75.20;;;;;;5046354;28;20067;-53
2021/08/22 07:47:45;;;;;;;5.32;2.45;;;20.50;75.10;;;;;;5046088;28;20036;-53
2021/08/22 07:50:30;;;;;;;5.72;2.80;;;20.70;74.70;;;;;;5046134;28;20049;-52
2021/08/22 07:53:16;;;;;;;4.13;2.47;;;20.80;74.70;;;;;;5045863;28;20096;-53
2021/08/22 07:56:05;;;;;;;4.88;2.50;;;20.90;74.70;;;;;;5045715;28;20387;-52
2021/08/22 07:58:49;;;;;;;3.63;2.40;;;21.10;74.80;;;;;;5045693;28;20036;-53
2021/08/22 08:01:34;;;;;;;5.20;2.47;;;21.10;74.40;;;;;;5045686;28;20049;-53
2021/08/22 08:04:18;;;;;;;4.30;2.35;;;21.30;75.10;;;;;;5045509;28;20067;-52
2021/08/22 08:07:02;;;;;;;4.32;2.50;;;21.40;74.80;;;;;;5044319;28;20031;-54
2021/08/22 08:09:46;;;;;;;4.57;2.28;;;21.40;74.60;;;;;;5045443;28;20355;-52
2021/08/22 08:12:31;;;;;;;5.00;2.15;;;21.50;74.00;;;;;;5045440;28;20257;-52
2021/08/22 08:15:15;;;;;;;3.90;2.45;;;21.60;73.60;;;;;;5045235;28;20396;-50
2021/08/22 08:17:59;;;;;;;3.45;2.17;;;21.70;73.70;;;;;;5045689;28;20347;-53
2021/08/22 08:20:43;;;;;;;3.65;2.40;;;21.80;73.00;;;;;;5044542;28;20036;-52
2021/08/22 08:23:27;;;;;;;4.65;2.42;;;21.80;71.90;;;;;;5045671;28;20056;-53
2021/08/22 08:26:11;;;;;;;4.20;2.30;;;21.90;71.30;;;;;;5045560;28;20028;-52
2021/08/22 08:28:55;;;;;;;3.75;2.45;;;22.00;71.10;;;;;;5045514;28;20033;-53
2021/08/22 08:31:40;;;;;;;4.68;2.50;;;22.00;70.70;;;;;;5045531;28;20035;-53
2021/08/22 08:34:24;;;;;;;4.40;2.30;;;22.10;70.90;;;;;;5045257;28;20076;-53
2021/08/22 08:37:08;;;;;;;3.40;2.05;;;22.00;70.80;;;;;;5045013;28;20090;-54
2021/08/22 08:39:52;;;;;;;4.00;2.50;;;22.00;70.30;;;;;;5045045;28;20049;-53
2021/08/22 08:42:45;;;;;;;5.28;2.20;;;22.00;70.50;;;;;;5044912;28;20064;-54
2021/08/22 08:45:53;;;;;;;3.97;2.50;;;22.00;70.40;;;;;;5044862;28;20033;-51
2021/08/22 08:49:01;;;;;;;3.42;2.30;;;22.00;70.80;;;;;;5044752;28;20200;-53
2021/08/22 08:51:48;;;;;;;3.90;2.33;;;22.10;72.10;;;;;;5044027;28;20094;-52
2021/08/22 08:54:39;;;;;;;4.18;2.50;;;22.10;72.70;;;;;;5044291;28;20089;-54
2021/08/22 08:57:23;;;;;;;3.63;2.08;;;22.20;72.60;;;;;;5043492;28;20051;-51
2021/08/22 09:00:20;;;;;;;3.08;2.05;;;22.30;72.70;;;;;;5045060;28;20079;-53
2021/08/22 09:03:05;;;;;;;3.53;2.38;;;22.20;71.90;;;;;;5044570;28;20052;-53
2021/08/22 09:06:01;;;;;;;7.10;2.40;;;22.30;72.10;;;;;;5044586;28;20044;-54
2021/08/22 09:09:25;;;;;;;4.65;2.35;;;22.30;72.00;;;;;;5044639;28;20037;-54
2021/08/22 09:12:43;;;;;;;4.10;2.30;;;22.30;71.80;;;;;;5044480;28;20071;-52
2021/08/22 09:16:20;;;;;;;3.42;2.08;;;22.30;71.60;;;;;;5044457;28;20163;-53
2021/08/22 09:19:42;;;;;;;3.45;2.17;;;22.40;71.30;;;;;;5044169;28;20048;-54
2021/08/22 09:22:54;;;;;;;2.97;1.98;;;22.50;70.70;;;;;;5044639;28;20068;-53
2021/08/22 09:26:20;;;;;;;3.63;2.22;;;22.50;70.50;;;;;;5044340;28;20072;-54
2021/08/22 09:29:46;;;;;;;3.92;2.38;;;22.70;71.50;;;;;;5030264;28;20117;-53
2021/08/22 09:33:08;;;;;;;3.30;2.20;;;22.70;68.80;;;;;;5044481;28;20212;-54
2021/08/22 09:36:20;;;;;;;3.58;2.45;;;22.70;69.60;;;;;;5044014;28;20075;-51
2021/08/22 09:39:42;;;;;;;4.72;2.50;;;22.80;69.10;;;;;;5044137;28;20064;-53
2021/08/22 09:43:04;;;;;;;4.05;2.10;;;22.90;70.40;;;;;;5044746;28;20101;-52
2021/08/22 09:46:16;;;;;;;3.55;2.25;;;23.10;70.20;;;;;;5044103;28;20205;-54
2021/08/22 09:49:23;;;;;;;3.65;2.40;;;23.10;70.10;;;;;;5044208;28;20043;-51
2021/08/22 09:52:35;;;;;;;4.55;2.38;;;23.20;69.20;;;;;;5044094;28;20139;-54
2021/08/22 09:55:53;;;;;;;4.05;2.00;;;23.30;70.00;;;;;;5043106;28;20064;-54
2021/08/22 09:59:07;;;;;;;4.70;2.50;;;23.30;69.90;;;;;;5043999;28;20049;-54
2021/08/22 10:02:31;;;;;;;5.13;2.50;;;23.30;69.70;;;;;;5043606;28;20037;-53
2021/08/22 10:05:36;;;;;;;3.47;2.33;;;23.40;68.40;;;;;;5042697;28;20359;-55
2021/08/22 10:08:47;;;;;;;4.28;2.60;;;23.40;68.00;;;;;;5043222;28;20041;-54
2021/08/22 10:11:41;;;;;;;8.30;2.80;;;23.50;67.50;;;;;;5043735;28;20060;-54
2021/08/22 10:14:26;;;;;;;3.70;2.40;;;23.60;67.00;;;;;;5029396;28;20088;-54
2021/08/22 10:17:22;;;;;;;4.95;2.67;;;23.70;67.70;;;;;;5042594;28;20028;-54
2021/08/22 10:20:07;;;;;;;4.97;2.75;;;23.80;67.20;;;;;;5043619;28;20056;-54
2021/08/22 10:22:55;;;;;;;7.75;2.92;;;23.80;66.90;;;;;;5043439;28;20033;-53
2021/08/22 10:25:47;;;;;;;4.88;2.90;;;24.10;67.50;;;;;;5043530;28;20038;-54
2021/08/22 10:28:53;;;;;;;;;;;24.20;66.60;;;;;;5043985;28;20099;-54
2021/08/22 10:31:50;;;;;;;4.78;2.85;;;24.20;65.50;;;;;;5047766;28;19928;-54
2021/08/22 10:34:35;;;;;;;4.03;2.58;;;24.40;64.00;;;;;;5047238;28;20036;-54
2021/08/22 10:37:27;;;;;;;4.38;2.58;;;24.40;62.50;;;;;;5047489;28;20041;-54
2021/08/22 10:40:24;;;;;;;5.78;2.60;;;24.50;63.00;;;;;;5046567;28;20448;-54
2021/08/22 10:43:09;;;;;;;3.80;2.40;;;24.50;62.10;;;;;;5047280;28;20147;-54
2021/08/22 10:45:53;;;;;;;4.15;2.72;;;24.60;62.60;;;;;;5047390;28;20033;-55
2021/08/22 10:48:37;;;;;;;6.53;2.97;;;24.80;62.50;;;;;;5047050;28;20205;-54
2021/08/22 10:51:22;;;;;;;5.70;2.58;;;24.80;62.90;;;;;;5046962;28;20035;-54
2021/08/22 10:54:16;;;;;;;8.13;2.50;;;24.90;62.90;;;;;;5046839;28;20063;-54
2021/08/22 10:57:00;;;;;;;3.35;2.22;;;24.90;61.00;;;;;;5047039;28;20041;-54
2021/08/22 11:00:22;;;;;;;4.97;2.50;;;24.90;60.70;;;;;;5047058;28;20052;-54
2021/08/22 11:03:11;;;;;;;;;;;25.00;61.90;;;;;;5037771;28;20274;-54
2021/08/22 11:05:56;;;;;;;4.22;2.50;;;25.10;62.20;;;;;;5046230;28;19913;-55
2021/08/22 11:08:40;;;;;;;4.43;2.53;;;25.00;62.00;;;;;;5018221;28;20041;-54
2021/08/22 11:11:24;;;;;;;4.72;2.58;;;25.10;60.50;;;;;;5046778;28;20092;-54
2021/08/22 11:14:08;;;;;;;5.55;2.42;;;25.00;61.50;;;;;;5046565;28;20152;-52
2021/08/22 11:16:52;;;;;;;4.20;2.88;;;25.10;61.50;;;;;;5031719;28;20260;-54
2021/08/22 11:19:36;;;;;;;3.47;2.40;;;25.00;61.20;;;;;;5046974;28;20071;-53
2021/08/22 11:22:26;;;;;;;4.00;2.47;;;24.90;60.90;;;;;;5046840;28;20032;-53
2021/08/22 11:25:10;;;;;;;4.35;2.47;;;24.80;62.40;;;;;;5046863;28;20335;-53
2021/08/22 11:28:22;;;;;;;5.47;2.58;;;24.80;62.40;;;;;;5046589;28;20028;-54
2021/08/22 11:31:10;;;;;;;4.70;2.92;;;24.80;62.70;;;;;;5046516;28;20044;-54
2021/08/22 11:33:55;;;;;;;3.63;2.60;;;24.80;60.90;;;;;;5046539;28;20060;-54
2021/08/22 11:36:39;;;;;;;4.25;2.60;;;24.70;60.70;;;;;;5046296;28;20072;-54
2021/08/22 11:39:23;;;;;;;4.13;2.33;;;24.80;61.50;;;;;;5046611;28;20366;-54
2021/08/22 11:42:08;;;;;;;4.68;2.78;;;24.80;60.90;;;;;;5046559;28;20148;-53
2021/08/22 11:45:10;;;;;;;4.70;2.63;;;24.80;60.30;;;;;;5046481;28;20041;-53
2021/08/22 11:47:54;;;;;;;4.53;2.63;;;24.90;61.90;;;;;;5045937;28;20037;-54
2021/08/22 11:50:38;;;;;;;4.68;2.80;;;24.90;60.80;;;;;;5031195;28;20044;-54
2021/08/22 11:53:28;;;;;;;3.70;2.60;;;24.90;60.50;;;;;;5045141;28;20028;-54
2021/08/22 11:56:12;;;;;;;4.63;2.50;;;25.00;60.20;;;;;;5045321;28;20084;-54
2021/08/22 11:58:56;;;;;;;4.15;2.75;;;25.10;60.90;;;;;;5031070;28;20031;-54
2021/08/22 12:01:40;;;;;;;4.88;3.13;;;25.10;61.30;;;;;;5045754;28;20032;-53
2021/08/22 12:04:25;;;;;;;4.13;2.58;;;25.20;60.50;;;;;;5045920;28;20086;-53
2021/08/22 12:07:09;;;;;;;5.40;2.50;;;25.20;60.10;;;;;;5044747;28;20029;-53
2021/08/22 12:09:53;;;;;;;3.92;2.90;;;25.20;60.00;;;;;;5044870;28;20352;-54
2021/08/22 12:12:39;;;;;;;4.30;2.50;;;25.20;59.90;;;;;;5044883;28;20069;-54
2021/08/22 12:15:36;;;;;;;4.93;3.13;;;25.20;59.60;;;;;;5045385;28;20059;-54
2021/08/22 12:18:27;;;;;;;4.20;2.35;;;25.20;58.40;;;;;;5045444;28;20104;-51
2021/08/22 12:21:14;;;;;;;4.05;2.60;;;25.20;58.00;;;;;;5045948;28;20205;-54
2021/08/22 12:23:58;;;;;;;3.88;2.60;;;25.20;58.80;;;;;;5044561;28;20071;-54
2021/08/22 12:26:50;;;;;;;4.28;2.90;;;25.10;58.60;;;;;;5044642;28;20224;-54
2021/08/22 12:29:36;;;;;;;4.78;2.90;;;25.00;58.50;;;;;;5046073;28;20056;-54
2021/08/22 12:32:20;;;;;;;3.97;2.72;;;25.00;58.60;;;;;;5045885;28;20036;-54
2021/08/22 12:35:08;;;;;;;5.38;2.65;;;24.90;59.40;;;;;;5045304;28;20035;-53
2021/08/22 12:37:52;;;;;;;4.10;2.70;;;24.90;59.10;;;;;;5045234;28;20060;-54
2021/08/22 12:40:36;;;;;;;3.97;2.70;;;24.90;59.50;;;;;;5044369;28;20067;-55
2021/08/22 12:43:20;;;;;;;4.05;2.40;;;24.80;60.00;;;;;;5045151;28;20036;-54
2021/08/22 12:46:04;;;;;;;4.78;2.60;;;24.80;59.90;;;;;;5045162;28;20035;-54
2021/08/22 12:48:49;;;;;;;5.50;2.50;;;24.70;60.20;;;;;;5045064;28;20045;-53
2021/08/22 12:51:34;;;;;;;4.18;2.78;;;24.70;60.00;;;;;;5044691;28;20256;-53
2021/08/22 12:54:22;;;;;;;4.38;2.47;;;24.70;59.70;;;;;;5044810;28;20028;-53
2021/08/22 12:57:06;;;;;;;5.05;2.60;;;24.70;59.80;;;;;;5044363;28;20024;-54
2021/08/22 12:59:50;;;;;;;4.38;2.90;;;24.70;59.80;;;;;;5045303;28;20036;-53
2021/08/22 13:02:34;;;;;;;3.85;2.55;;;24.70;60.00;;;;;;5045208;28;20094;-54
2021/08/22 13:05:19;;;;;;;3.88;2.72;;;24.70;59.70;;;;;;5045097;28;20195;-54
2021/08/22 13:08:03;;;;;;;4.18;2.53;;;24.80;60.50;;;;;;5045007;28;20036;-54
2021/08/22 13:10:47;;;;;;;4.15;2.65;;;24.80;59.80;;;;;;5044400;28;20124;-54
2021/08/22 13:13:32;;;;;;;4.13;2.80;;;24.90;59.70;;;;;;5044416;28;20052;-54
2021/08/22 13:16:16;;;;;;;4.13;2.70;;;24.90;59.60;;;;;;5043270;28;20023;-54
2021/08/22 13:19:00;;;;;;;3.80;2.60;;;25.00;58.90;;;;;;5044350;28;20093;-54
2021/08/22 13:21:54;;;;;;;4.28;2.50;;;25.00;58.70;;;;;;5044351;28;20036;-54
2021/08/22 13:24:38;;;;;;;4.32;2.70;;;25.00;58.10;;;;;;5030803;28;20091;-53
2021/08/22 13:27:22;;;;;;;5.35;2.60;;;25.00;59.10;;;;;;5043984;28;20063;-53
2021/08/22 13:30:07;;;;;;;5.53;2.80;;;25.10;58.70;;;;;;5044921;28;20028;-54
2021/08/22 13:32:54;;;;;;;3.58;2.75;;;25.10;59.30;;;;;;5044298;28;20088;-50
2021/08/22 13:35:38;;;;;;;4.80;2.50;;;25.10;59.50;;;;;;5043058;28;20072;-55
2021/08/22 13:38:22;;;;;;;4.38;3.00;;;25.20;59.90;;;;;;5044624;28;20056;-54
2021/08/22 13:41:06;;;;;;;4.10;2.70;;;25.30;60.00;;;;;;5043934;28;20056;-54
2021/08/22 13:43:51;;;;;;;3.40;2.53;;;25.30;59.20;;;;;;5044388;28;20032;-54
2021/08/22 13:46:35;;;;;;;5.78;2.28;;;25.30;58.90;;;;;;5044217;28;20336;-53
2021/08/22 13:49:19;;;;;;;3.90;2.70;;;25.30;59.20;;;;;;5043876;28;20032;-54
2021/08/22 13:52:04;;;;;;;4.93;2.70;;;25.30;59.30;;;;;;5043891;28;20065;-53
2021/08/22 13:54:48;;;;;;;3.30;2.50;;;25.50;59.30;;;;;;5043715;28;20024;-53
2021/08/22 13:57:32;;;;;;;6.22;3.05;;;25.40;59.20;;;;;;5043491;28;20041;-54
2021/08/22 14:00:16;;;;;;;4.40;2.85;;;25.30;59.20;;;;;;5043615;28;20243;-53
2021/08/22 14:03:03;;;;;;;8.13;2.88;;;25.30;59.70;;;;;;5043878;28;20067;-53
2021/08/22 14:05:47;;;;;;;5.43;2.63;;;25.20;59.10;;;;;;5043768;28;20052;-53
2021/08/22 14:08:32;;;;;;;6.93;4.30;;;25.00;58.50;;;;;;5042639;28;20032;-54
2021/08/22 14:11:16;;;;;;;3.92;2.97;;;24.90;57.80;;;;;;5043579;28;20110;-53
2021/08/22 14:14:00;;;;;;;4.60;2.97;;;24.80;58.10;;;;;;5043443;28;20110;-54
2021/08/22 14:16:45;;;;;;;4.38;2.80;;;24.70;58.60;;;;;;5043753;28;20075;-54
2021/08/22 14:19:29;;;;;;;4.97;3.25;;;24.50;59.80;;;;;;5043476;28;20064;-53
2021/08/22 14:22:13;;;;;;;8.07;3.30;;;24.50;60.10;;;;;;5043442;28;20056;-53
2021/08/22 14:24:58;;;;;;;6.35;3.65;;;24.30;62.20;;;;;;5042400;28;20031;-53
2021/08/22 14:27:42;;;;;;;5.50;3.45;;;24.30;63.70;;;;;;5043444;28;20044;-50
2021/08/22 14:30:26;;;;;;;6.95;4.15;;;24.10;64.40;;;;;;5043473;28;20024;-54
2021/08/22 14:33:10;;;;;;;7.05;4.03;;;24.00;65.30;;;;;;5043884;28;20028;-53